sensor_id;sensor_type;location;lat;lon;timestamp;temperature;humidity
51815;DHT22;37874;53.158;6.766;2023-08-08T00:01:53;23.00;56.50
51815;DHT22;37874;53.158;6.766;2023-08-08T00:04:22;23.50;56.70
51815;DHT22;37874;53.158;6.766;2023-08-08T00:06:47;23.00;56.40
51815;DHT22;37874;53.158;6.766;2023-08-08T00:09:13;23.00;56.50
51815;DHT22;37874;53.158;6.766;2023-08-08T00:11:39;22.90;56.40
51815;DHT22;37874;53.158;6.766;2023-08-08T00:14:04;23.00;56.50
51815;DHT22;37874;53.158;6.766;2023-08-08T00:16:30;23.00;56.50
51815;DHT22;37874;53.158;6.766;2023-08-08T00:18:56;23.00;56.50
51815;DHT22;37874;53.158;6.766;2023-08-08T00:21:21;23.00;56.50
51815;DHT22;37874;53.158;6.766;2023-08-08T00:23:47;23.00;56.50
51815;DHT22;37874;53.158;6.766;2023-08-08T00:26:13;22.90;56.40
51815;DHT22;37874;53.158;6.766;2023-08-08T00:28:38;23.00;56.40
51815;DHT22;37874;53.158;6.766;2023-08-08T00:31:04;23.00;56.40
51815;DHT22;37874;53.158;6.766;2023-08-08T00:33:30;23.10;56.60
51815;DHT22;37874;53.158;6.766;2023-08-08T00:35:55;22.90;56.40
51815;DHT22;37874;53.158;6.766;2023-08-08T00:38:21;23.60;56.80
51815;DHT22;37874;53.158;6.766;2023-08-08T00:40:47;23.00;56.60
51815;DHT22;37874;53.158;6.766;2023-08-08T00:43:12;23.00;56.50
51815;DHT22;37874;53.158;6.766;2023-08-08T00:45:40;23.20;56.60
51815;DHT22;37874;53.158;6.766;2023-08-08T00:48:07;23.10;56.60
51815;DHT22;37874;53.158;6.766;2023-08-08T00:50:33;23.00;56.50
51815;DHT22;37874;53.158;6.766;2023-08-08T00:52:59;23.00;56.60
51815;DHT22;37874;53.158;6.766;2023-08-08T00:55:25;23.00;56.50
51815;DHT22;37874;53.158;6.766;2023-08-08T00:57:51;23.00;56.50
51815;DHT22;37874;53.158;6.766;2023-08-08T01:00:16;23.00;56.50
51815;DHT22;37874;53.158;6.766;2023-08-08T01:02:42;22.90;56.50
51815;DHT22;37874;53.158;6.766;2023-08-08T01:05:08;23.00;57.20
51815;DHT22;37874;53.158;6.766;2023-08-08T01:07:54;23.00;56.70
51815;DHT22;37874;53.158;6.766;2023-08-08T01:10:29;23.00;56.70
51815;DHT22;37874;53.158;6.766;2023-08-08T01:13:00;23.20;56.80
51815;DHT22;37874;53.158;6.766;2023-08-08T01:15:29;23.00;56.70
51815;DHT22;37874;53.158;6.766;2023-08-08T01:17:57;23.00;56.70
51815;DHT22;37874;53.158;6.766;2023-08-08T01:20:23;23.20;56.80
51815;DHT22;37874;53.158;6.766;2023-08-08T01:25:46;22.90;56.60
51815;DHT22;37874;53.158;6.766;2023-08-08T01:28:13;22.90;56.70
51815;DHT22;37874;53.158;6.766;2023-08-08T01:30:39;22.90;56.70
51815;DHT22;37874;53.158;6.766;2023-08-08T01:33:05;23.50;57.00
51815;DHT22;37874;53.158;6.766;2023-08-08T01:35:37;22.90;56.70
51815;DHT22;37874;53.158;6.766;2023-08-08T01:40:35;23.10;56.90
51815;DHT22;37874;53.158;6.766;2023-08-08T01:43:01;22.80;56.70
51815;DHT22;37874;53.158;6.766;2023-08-08T01:45:27;22.90;56.70
51815;DHT22;37874;53.158;6.766;2023-08-08T01:47:52;22.80;56.70
51815;DHT22;37874;53.158;6.766;2023-08-08T01:50:19;22.90;56.70
51815;DHT22;37874;53.158;6.766;2023-08-08T01:52:44;22.80;56.70
51815;DHT22;37874;53.158;6.766;2023-08-08T01:55:10;22.80;56.70
51815;DHT22;37874;53.158;6.766;2023-08-08T01:57:36;22.80;56.70
51815;DHT22;37874;53.158;6.766;2023-08-08T02:00:02;22.80;56.70
51815;DHT22;37874;53.158;6.766;2023-08-08T02:02:29;22.80;56.70
51815;DHT22;37874;53.158;6.766;2023-08-08T02:04:55;22.80;56.80
51815;DHT22;37874;53.158;6.766;2023-08-08T02:07:21;22.80;56.70
51815;DHT22;37874;53.158;6.766;2023-08-08T02:09:46;22.80;56.70
51815;DHT22;37874;53.158;6.766;2023-08-08T02:12:12;23.10;56.90
51815;DHT22;37874;53.158;6.766;2023-08-08T02:14:37;22.80;56.70
51815;DHT22;37874;53.158;6.766;2023-08-08T02:17:03;22.80;56.70
51815;DHT22;37874;53.158;6.766;2023-08-08T02:19:29;22.80;56.70
51815;DHT22;37874;53.158;6.766;2023-08-08T02:21:55;22.80;56.70
51815;DHT22;37874;53.158;6.766;2023-08-08T02:24:21;22.90;56.80
51815;DHT22;37874;53.158;6.766;2023-08-08T02:26:46;23.30;57.00
51815;DHT22;37874;53.158;6.766;2023-08-08T02:29:12;22.80;56.80
51815;DHT22;37874;53.158;6.766;2023-08-08T02:31:38;22.80;56.80
51815;DHT22;37874;53.158;6.766;2023-08-08T02:34:03;23.00;56.90
51815;DHT22;37874;53.158;6.766;2023-08-08T02:36:29;22.80;56.80
51815;DHT22;37874;53.158;6.766;2023-08-08T02:38:55;22.80;56.80
51815;DHT22;37874;53.158;6.766;2023-08-08T02:41:20;22.80;56.80
51815;DHT22;37874;53.158;6.766;2023-08-08T02:43:46;22.80;56.80
51815;DHT22;37874;53.158;6.766;2023-08-08T02:46:12;22.80;56.80
51815;DHT22;37874;53.158;6.766;2023-08-08T02:48:37;22.90;56.90
51815;DHT22;37874;53.158;6.766;2023-08-08T02:51:03;22.80;56.80
51815;DHT22;37874;53.158;6.766;2023-08-08T02:53:30;22.80;56.80
51815;DHT22;37874;53.158;6.766;2023-08-08T02:55:55;22.90;56.80
51815;DHT22;37874;53.158;6.766;2023-08-08T02:58:21;22.80;56.70
51815;DHT22;37874;53.158;6.766;2023-08-08T03:00:46;22.80;56.80
51815;DHT22;37874;53.158;6.766;2023-08-08T03:03:12;22.80;56.80
51815;DHT22;37874;53.158;6.766;2023-08-08T03:05:38;22.70;56.70
51815;DHT22;37874;53.158;6.766;2023-08-08T03:08:04;22.80;56.80
51815;DHT22;37874;53.158;6.766;2023-08-08T03:10:29;22.70;56.70
51815;DHT22;37874;53.158;6.766;2023-08-08T03:12:55;22.80;56.80
51815;DHT22;37874;53.158;6.766;2023-08-08T03:15:20;22.70;56.80
51815;DHT22;37874;53.158;6.766;2023-08-08T03:17:46;22.80;56.80
51815;DHT22;37874;53.158;6.766;2023-08-08T03:20:12;22.70;56.80
51815;DHT22;37874;53.158;6.766;2023-08-08T05:24:06;22.70;56.60
51815;DHT22;37874;53.158;6.766;2023-08-08T05:26:32;22.70;56.50
51815;DHT22;37874;53.158;6.766;2023-08-08T05:28:59;22.70;56.40
51815;DHT22;37874;53.158;6.766;2023-08-08T05:31:24;22.70;56.50
51815;DHT22;37874;53.158;6.766;2023-08-08T05:33:50;22.80;56.60
51815;DHT22;37874;53.158;6.766;2023-08-08T05:36:15;22.80;56.50
51815;DHT22;37874;53.158;6.766;2023-08-08T05:38:41;22.70;56.40
51815;DHT22;37874;53.158;6.766;2023-08-08T05:41:07;22.70;56.30
51815;DHT22;37874;53.158;6.766;2023-08-08T05:43:33;22.70;56.30
51815;DHT22;37874;53.158;6.766;2023-08-08T05:45:59;22.70;56.20
51815;DHT22;37874;53.158;6.766;2023-08-08T05:48:24;22.70;56.20
51815;DHT22;37874;53.158;6.766;2023-08-08T05:50:50;22.70;56.20
51815;DHT22;37874;53.158;6.766;2023-08-08T05:53:16;22.80;56.20
51815;DHT22;37874;53.158;6.766;2023-08-08T05:55:42;22.80;56.20
51815;DHT22;37874;53.158;6.766;2023-08-08T05:58:08;22.70;56.20
51815;DHT22;37874;53.158;6.766;2023-08-08T06:00:34;22.70;56.20
51815;DHT22;37874;53.158;6.766;2023-08-08T06:03:00;22.70;56.20
51815;DHT22;37874;53.158;6.766;2023-08-08T06:05:26;23.20;56.60
51815;DHT22;37874;53.158;6.766;2023-08-08T06:07:52;22.90;56.40
51815;DHT22;37874;53.158;6.766;2023-08-08T06:10:17;22.70;56.40
51815;DHT22;37874;53.158;6.766;2023-08-08T06:12:43;22.80;56.40
51815;DHT22;37874;53.158;6.766;2023-08-08T06:15:09;22.70;56.90
51815;DHT22;37874;53.158;6.766;2023-08-08T06:17:34;22.70;56.40
51815;DHT22;37874;53.158;6.766;2023-08-08T06:20:00;22.80;56.40
51815;DHT22;37874;53.158;6.766;2023-08-08T06:22:26;22.70;56.40
51815;DHT22;37874;53.158;6.766;2023-08-08T06:24:51;22.70;56.30
51815;DHT22;37874;53.158;6.766;2023-08-08T06:27:17;22.70;56.30
51815;DHT22;37874;53.158;6.766;2023-08-08T06:29:43;22.80;56.20
51815;DHT22;37874;53.158;6.766;2023-08-08T06:32:09;22.70;56.10
51815;DHT22;37874;53.158;6.766;2023-08-08T06:34:34;22.70;56.20
51815;DHT22;37874;53.158;6.766;2023-08-08T06:37:00;22.70;56.20
51815;DHT22;37874;53.158;6.766;2023-08-08T06:39:25;22.70;56.00
51815;DHT22;37874;53.158;6.766;2023-08-08T06:41:51;22.80;56.20
51815;DHT22;37874;53.158;6.766;2023-08-08T06:44:17;22.70;56.10
51815;DHT22;37874;53.158;6.766;2023-08-08T06:46:42;22.90;56.30
51815;DHT22;37874;53.158;6.766;2023-08-08T06:49:08;22.80;56.20
51815;DHT22;37874;53.158;6.766;2023-08-08T06:51:35;22.70;56.70
51815;DHT22;37874;53.158;6.766;2023-08-08T06:54:01;22.60;56.70
51815;DHT22;37874;53.158;6.766;2023-08-08T06:56:26;22.80;56.20
51815;DHT22;37874;53.158;6.766;2023-08-08T06:58:53;22.70;56.20
51815;DHT22;37874;53.158;6.766;2023-08-08T07:01:19;22.80;56.20
51815;DHT22;37874;53.158;6.766;2023-08-08T07:03:44;22.80;56.00
51815;DHT22;37874;53.158;6.766;2023-08-08T07:06:10;22.90;56.10
51815;DHT22;37874;53.158;6.766;2023-08-08T07:08:36;22.80;56.00
51815;DHT22;37874;53.158;6.766;2023-08-08T07:11:05;22.80;55.90
51815;DHT22;37874;53.158;6.766;2023-08-08T07:13:34;22.80;56.00
51815;DHT22;37874;53.158;6.766;2023-08-08T07:16:00;22.80;55.90
51815;DHT22;37874;53.158;6.766;2023-08-08T07:18:26;22.80;55.80
51815;DHT22;37874;53.158;6.766;2023-08-08T07:20:51;22.90;55.90
51815;DHT22;37874;53.158;6.766;2023-08-08T07:23:17;22.90;55.70
51815;DHT22;37874;53.158;6.766;2023-08-08T07:25:43;23.00;55.60
51815;DHT22;37874;53.158;6.766;2023-08-08T07:28:10;22.90;55.60
51815;DHT22;37874;53.158;6.766;2023-08-08T07:30:36;22.90;55.40
51815;DHT22;37874;53.158;6.766;2023-08-08T07:33:01;23.00;55.30
51815;DHT22;37874;53.158;6.766;2023-08-08T07:35:27;23.00;55.20
51815;DHT22;37874;53.158;6.766;2023-08-08T07:37:53;23.50;55.60
51815;DHT22;37874;53.158;6.766;2023-08-08T07:40:20;23.00;55.30
51815;DHT22;37874;53.158;6.766;2023-08-08T07:42:49;23.20;55.20
51815;DHT22;37874;53.158;6.766;2023-08-08T07:45:15;23.30;55.10
51815;DHT22;37874;53.158;6.766;2023-08-08T07:47:41;23.10;55.10
51815;DHT22;37874;53.158;6.766;2023-08-08T07:50:08;23.20;55.00
51815;DHT22;37874;53.158;6.766;2023-08-08T07:52:37;23.20;54.90
51815;DHT22;37874;53.158;6.766;2023-08-08T07:55:04;23.30;54.30
51815;DHT22;37874;53.158;6.766;2023-08-08T07:57:31;23.30;54.30
51815;DHT22;37874;53.158;6.766;2023-08-08T07:59:59;23.30;54.00
51815;DHT22;37874;53.158;6.766;2023-08-08T08:02:24;23.30;54.20
51815;DHT22;37874;53.158;6.766;2023-08-08T08:04:50;23.20;54.20
51815;DHT22;37874;53.158;6.766;2023-08-08T08:07:16;23.30;54.20
51815;DHT22;37874;53.158;6.766;2023-08-08T08:09:41;23.50;54.00
51815;DHT22;37874;53.158;6.766;2023-08-08T08:12:08;23.30;53.80
51815;DHT22;37874;53.158;6.766;2023-08-08T08:14:34;23.70;54.20
51815;DHT22;37874;53.158;6.766;2023-08-08T08:16:59;23.50;54.00
51815;DHT22;37874;53.158;6.766;2023-08-08T08:19:25;23.50;53.90
51815;DHT22;37874;53.158;6.766;2023-08-08T08:21:51;23.30;53.70
51815;DHT22;37874;53.158;6.766;2023-08-08T08:24:16;23.60;53.90
51815;DHT22;37874;53.158;6.766;2023-08-08T08:26:42;23.70;53.90
51815;DHT22;37874;53.158;6.766;2023-08-08T08:29:08;23.60;53.70
51815;DHT22;37874;53.158;6.766;2023-08-08T08:31:33;23.60;53.60
51815;DHT22;37874;53.158;6.766;2023-08-08T08:33:59;23.60;53.40
51815;DHT22;37874;53.158;6.766;2023-08-08T08:36:25;23.60;53.20
51815;DHT22;37874;53.158;6.766;2023-08-08T08:38:51;23.70;53.40
51815;DHT22;37874;53.158;6.766;2023-08-08T08:41:20;23.60;53.30
51815;DHT22;37874;53.158;6.766;2023-08-08T08:43:49;23.80;53.50
51815;DHT22;37874;53.158;6.766;2023-08-08T08:46:20;23.60;53.10
51815;DHT22;37874;53.158;6.766;2023-08-08T08:48:46;23.60;53.50
51815;DHT22;37874;53.158;6.766;2023-08-08T08:51:12;23.60;53.20
51815;DHT22;37874;53.158;6.766;2023-08-08T08:53:38;23.70;53.30
51815;DHT22;37874;53.158;6.766;2023-08-08T08:56:04;23.70;53.20
51815;DHT22;37874;53.158;6.766;2023-08-08T08:58:34;24.20;53.30
51815;DHT22;37874;53.158;6.766;2023-08-08T09:01:00;23.70;53.10
51815;DHT22;37874;53.158;6.766;2023-08-08T09:03:26;23.70;53.10
51815;DHT22;37874;53.158;6.766;2023-08-08T09:05:52;23.60;53.10
51815;DHT22;37874;53.158;6.766;2023-08-08T09:08:20;23.70;53.20
51815;DHT22;37874;53.158;6.766;2023-08-08T09:10:45;23.70;53.10
51815;DHT22;37874;53.158;6.766;2023-08-08T09:13:11;23.70;53.30
51815;DHT22;37874;53.158;6.766;2023-08-08T09:15:37;23.70;53.20
51815;DHT22;37874;53.158;6.766;2023-08-08T09:18:03;23.70;53.30
51815;DHT22;37874;53.158;6.766;2023-08-08T09:20:28;23.70;53.40
51815;DHT22;37874;53.158;6.766;2023-08-08T09:22:54;23.80;53.40
51815;DHT22;37874;53.158;6.766;2023-08-08T09:25:20;23.80;53.20
51815;DHT22;37874;53.158;6.766;2023-08-08T09:27:46;23.80;53.10
51815;DHT22;37874;53.158;6.766;2023-08-08T09:30:13;23.80;53.20
51815;DHT22;37874;53.158;6.766;2023-08-08T09:32:38;23.90;53.10
51815;DHT22;37874;53.158;6.766;2023-08-08T09:35:04;23.80;53.00
51815;DHT22;37874;53.158;6.766;2023-08-08T09:37:33;23.80;53.10
51815;DHT22;37874;53.158;6.766;2023-08-08T09:39:59;23.90;52.90
51815;DHT22;37874;53.158;6.766;2023-08-08T09:42:28;23.90;52.90
51815;DHT22;37874;53.158;6.766;2023-08-08T09:44:56;23.80;52.80
51815;DHT22;37874;53.158;6.766;2023-08-08T09:47:22;23.80;52.50
51815;DHT22;37874;53.158;6.766;2023-08-08T09:49:48;23.80;52.70
51815;DHT22;37874;53.158;6.766;2023-08-08T09:52:15;23.90;52.60
51815;DHT22;37874;53.158;6.766;2023-08-08T09:54:41;23.90;52.60
51815;DHT22;37874;53.158;6.766;2023-08-08T09:57:07;23.90;52.40
51815;DHT22;37874;53.158;6.766;2023-08-08T09:59:36;23.90;52.40
51815;DHT22;37874;53.158;6.766;2023-08-08T10:02:04;23.90;52.50
51815;DHT22;37874;53.158;6.766;2023-08-08T10:04:35;23.90;52.30
51815;DHT22;37874;53.158;6.766;2023-08-08T10:07:01;23.90;52.40
51815;DHT22;37874;53.158;6.766;2023-08-08T10:09:28;23.90;52.60
51815;DHT22;37874;53.158;6.766;2023-08-08T10:11:55;23.90;52.40
51815;DHT22;37874;53.158;6.766;2023-08-08T10:14:29;23.90;52.40
51815;DHT22;37874;53.158;6.766;2023-08-08T10:17:03;24.20;52.40
51815;DHT22;37874;53.158;6.766;2023-08-08T10:19:29;23.90;52.00
51815;DHT22;37874;53.158;6.766;2023-08-08T10:22:03;24.20;52.30
51815;DHT22;37874;53.158;6.766;2023-08-08T10:24:35;23.90;52.10
51815;DHT22;37874;53.158;6.766;2023-08-08T10:27:03;24.00;52.50
51815;DHT22;37874;53.158;6.766;2023-08-08T10:29:31;23.90;52.40
51815;DHT22;37874;53.158;6.766;2023-08-08T10:32:05;24.40;52.50
51815;DHT22;37874;53.158;6.766;2023-08-08T10:34:44;23.80;52.40
51815;DHT22;37874;53.158;6.766;2023-08-08T10:37:13;23.80;52.40
51815;DHT22;37874;53.158;6.766;2023-08-08T12:37:40;25.20;47.60
51815;DHT22;37874;53.158;6.766;2023-08-08T12:40:06;25.10;48.10
51815;DHT22;37874;53.158;6.766;2023-08-08T12:42:32;25.10;48.40
51815;DHT22;37874;53.158;6.766;2023-08-08T12:44:58;25.20;48.50
51815;DHT22;37874;53.158;6.766;2023-08-08T12:47:23;25.30;48.50
51815;DHT22;37874;53.158;6.766;2023-08-08T12:49:49;25.40;48.20
51815;DHT22;37874;53.158;6.766;2023-08-08T12:52:14;25.70;48.40
51815;DHT22;37874;53.158;6.766;2023-08-08T12:54:40;25.30;48.30
51815;DHT22;37874;53.158;6.766;2023-08-08T12:57:06;25.30;48.40
51815;DHT22;37874;53.158;6.766;2023-08-08T12:59:32;25.20;48.50
51815;DHT22;37874;53.158;6.766;2023-08-08T13:01:57;25.20;48.10
51815;DHT22;37874;53.158;6.766;2023-08-08T13:04:23;25.20;48.40
51815;DHT22;37874;53.158;6.766;2023-08-08T13:06:49;25.40;48.70
51815;DHT22;37874;53.158;6.766;2023-08-08T13:09:14;25.20;48.60
51815;DHT22;37874;53.158;6.766;2023-08-08T13:11:41;25.20;48.50
51815;DHT22;37874;53.158;6.766;2023-08-08T13:14:07;25.10;48.50
51815;DHT22;37874;53.158;6.766;2023-08-08T13:16:32;25.20;48.50
51815;DHT22;37874;53.158;6.766;2023-08-08T13:18:58;25.10;48.60
51815;DHT22;37874;53.158;6.766;2023-08-08T13:21:24;25.10;48.90
51815;DHT22;37874;53.158;6.766;2023-08-08T13:23:52;25.20;48.40
51815;DHT22;37874;53.158;6.766;2023-08-08T13:26:18;25.50;48.40
51815;DHT22;37874;53.158;6.766;2023-08-08T13:28:44;25.70;47.60
51815;DHT22;37874;53.158;6.766;2023-08-08T13:31:09;26.10;47.30
51815;DHT22;37874;53.158;6.766;2023-08-08T13:33:35;26.30;46.60
51815;DHT22;37874;53.158;6.766;2023-08-08T13:36:01;26.40;45.90
51815;DHT22;37874;53.158;6.766;2023-08-08T13:38:26;26.50;45.60
51815;DHT22;37874;53.158;6.766;2023-08-08T13:40:52;26.70;45.40
51815;DHT22;37874;53.158;6.766;2023-08-08T13:43:19;26.90;45.10
51815;DHT22;37874;53.158;6.766;2023-08-08T13:45:45;26.90;44.90
51815;DHT22;37874;53.158;6.766;2023-08-08T13:48:11;26.80;45.00
51815;DHT22;37874;53.158;6.766;2023-08-08T13:50:36;26.70;45.30
51815;DHT22;37874;53.158;6.766;2023-08-08T13:53:02;26.80;45.50
51815;DHT22;37874;53.158;6.766;2023-08-08T13:55:29;26.70;45.50
51815;DHT22;37874;53.158;6.766;2023-08-08T13:57:54;26.60;45.50
51815;DHT22;37874;53.158;6.766;2023-08-08T14:00:21;26.40;45.90
51815;DHT22;37874;53.158;6.766;2023-08-08T14:02:47;26.30;46.80
51815;DHT22;37874;53.158;6.766;2023-08-08T14:05:13;26.20;46.60
51815;DHT22;37874;53.158;6.766;2023-08-08T14:07:38;26.20;46.50
51815;DHT22;37874;53.158;6.766;2023-08-08T14:10:05;26.20;46.40
51815;DHT22;37874;53.158;6.766;2023-08-08T14:12:31;26.20;46.30
51815;DHT22;37874;53.158;6.766;2023-08-08T14:14:57;26.20;46.40
51815;DHT22;37874;53.158;6.766;2023-08-08T14:17:23;26.30;46.40
51815;DHT22;37874;53.158;6.766;2023-08-08T14:19:48;26.40;46.20
51815;DHT22;37874;53.158;6.766;2023-08-08T14:22:14;26.60;46.00
51815;DHT22;37874;53.158;6.766;2023-08-08T14:24:41;26.70;45.50
51815;DHT22;37874;53.158;6.766;2023-08-08T14:27:07;26.70;45.50
51815;DHT22;37874;53.158;6.766;2023-08-08T14:29:33;26.50;45.50
51815;DHT22;37874;53.158;6.766;2023-08-08T14:31:58;26.40;45.70
51815;DHT22;37874;53.158;6.766;2023-08-08T14:34:33;26.30;46.00
51815;DHT22;37874;53.158;6.766;2023-08-08T14:37:00;26.50;45.90
51815;DHT22;37874;53.158;6.766;2023-08-08T14:39:27;26.70;45.40
51815;DHT22;37874;53.158;6.766;2023-08-08T14:41:52;26.80;45.30
51815;DHT22;37874;53.158;6.766;2023-08-08T14:44:18;26.80;45.40
51815;DHT22;37874;53.158;6.766;2023-08-08T14:46:44;26.60;45.30
51815;DHT22;37874;53.158;6.766;2023-08-08T14:49:10;26.50;46.00
51815;DHT22;37874;53.158;6.766;2023-08-08T14:51:35;26.50;45.60
51815;DHT22;37874;53.158;6.766;2023-08-08T14:54:01;26.40;45.70
51815;DHT22;37874;53.158;6.766;2023-08-08T14:56:28;26.50;45.90
51815;DHT22;37874;53.158;6.766;2023-08-08T14:58:53;26.60;45.30
51815;DHT22;37874;53.158;6.766;2023-08-08T15:01:19;26.60;45.50
51815;DHT22;37874;53.158;6.766;2023-08-08T15:03:45;26.60;45.20
51815;DHT22;37874;53.158;6.766;2023-08-08T15:06:10;26.50;45.20
51815;DHT22;37874;53.158;6.766;2023-08-08T15:08:36;26.30;45.40
51815;DHT22;37874;53.158;6.766;2023-08-08T15:11:02;26.20;45.70
51815;DHT22;37874;53.158;6.766;2023-08-08T15:13:27;26.10;46.00
51815;DHT22;37874;53.158;6.766;2023-08-08T15:15:53;26.00;46.30
51815;DHT22;37874;53.158;6.766;2023-08-08T15:18:19;26.00;46.30
51815;DHT22;37874;53.158;6.766;2023-08-08T15:20:44;26.00;46.40
51815;DHT22;37874;53.158;6.766;2023-08-08T15:23:10;26.10;46.60
51815;DHT22;37874;53.158;6.766;2023-08-08T15:25:36;26.20;46.50
51815;DHT22;37874;53.158;6.766;2023-08-08T15:28:03;26.30;45.80
51815;DHT22;37874;53.158;6.766;2023-08-08T15:30:29;26.50;45.70
51815;DHT22;37874;53.158;6.766;2023-08-08T15:32:55;26.70;45.30
51815;DHT22;37874;53.158;6.766;2023-08-08T15:35:21;26.80;45.10
51815;DHT22;37874;53.158;6.766;2023-08-08T15:37:47;27.00;45.00
51815;DHT22;37874;53.158;6.766;2023-08-08T15:40:12;27.20;44.80
51815;DHT22;37874;53.158;6.766;2023-08-08T15:42:38;27.20;44.50
51815;DHT22;37874;53.158;6.766;2023-08-08T15:45:07;27.30;44.20
51815;DHT22;37874;53.158;6.766;2023-08-08T15:47:33;27.50;44.10
51815;DHT22;37874;53.158;6.766;2023-08-08T15:49:59;27.50;43.70
51815;DHT22;37874;53.158;6.766;2023-08-08T15:52:26;27.40;43.50
51815;DHT22;37874;53.158;6.766;2023-08-08T15:54:52;27.50;43.60
51815;DHT22;37874;53.158;6.766;2023-08-08T15:57:17;27.50;43.70
51815;DHT22;37874;53.158;6.766;2023-08-08T15:59:45;27.60;43.60
51815;DHT22;37874;53.158;6.766;2023-08-08T16:02:11;27.40;43.40
51815;DHT22;37874;53.158;6.766;2023-08-08T16:04:37;27.60;43.60
51815;DHT22;37874;53.158;6.766;2023-08-08T16:07:03;27.70;43.60
51815;DHT22;37874;53.158;6.766;2023-08-08T16:09:29;27.60;43.30
51815;DHT22;37874;53.158;6.766;2023-08-08T16:11:55;27.70;43.50
51815;DHT22;37874;53.158;6.766;2023-08-08T16:14:21;27.70;43.20
51815;DHT22;37874;53.158;6.766;2023-08-08T16:16:47;27.80;43.20
51815;DHT22;37874;53.158;6.766;2023-08-08T16:19:13;27.80;43.10
51815;DHT22;37874;53.158;6.766;2023-08-08T16:21:39;27.80;43.00
51815;DHT22;37874;53.158;6.766;2023-08-08T16:24:04;27.80;43.00
51815;DHT22;37874;53.158;6.766;2023-08-08T16:26:30;27.90;43.10
51815;DHT22;37874;53.158;6.766;2023-08-08T16:28:56;27.90;43.00
51815;DHT22;37874;53.158;6.766;2023-08-08T16:31:22;27.90;42.90
51815;DHT22;37874;53.158;6.766;2023-08-08T16:33:48;27.90;42.90
51815;DHT22;37874;53.158;6.766;2023-08-08T16:36:13;28.00;42.90
51815;DHT22;37874;53.158;6.766;2023-08-08T16:38:41;28.00;42.80
51815;DHT22;37874;53.158;6.766;2023-08-08T16:41:06;28.00;42.90
51815;DHT22;37874;53.158;6.766;2023-08-08T16:43:36;28.10;43.00
51815;DHT22;37874;53.158;6.766;2023-08-08T16:46:02;28.00;42.80
51815;DHT22;37874;53.158;6.766;2023-08-08T16:48:29;28.00;43.10
51815;DHT22;37874;53.158;6.766;2023-08-08T16:50:59;28.00;43.00
51815;DHT22;37874;53.158;6.766;2023-08-08T16:53:28;28.00;42.90
51815;DHT22;37874;53.158;6.766;2023-08-08T16:55:53;27.90;43.10
51815;DHT22;37874;53.158;6.766;2023-08-08T16:58:20;27.90;43.20
51815;DHT22;37874;53.158;6.766;2023-08-08T17:00:46;27.80;43.40
51815;DHT22;37874;53.158;6.766;2023-08-08T17:03:11;27.70;43.50
51815;DHT22;37874;53.158;6.766;2023-08-08T17:05:38;27.60;43.60
51815;DHT22;37874;53.158;6.766;2023-08-08T17:08:04;27.50;43.80
51815;DHT22;37874;53.158;6.766;2023-08-08T17:10:30;27.50;43.90
51815;DHT22;37874;53.158;6.766;2023-08-08T17:12:56;27.50;44.10
51815;DHT22;37874;53.158;6.766;2023-08-08T17:15:24;27.30;44.20
51815;DHT22;37874;53.158;6.766;2023-08-08T17:17:50;27.30;44.30
51815;DHT22;37874;53.158;6.766;2023-08-08T17:20:15;27.30;44.40
51815;DHT22;37874;53.158;6.766;2023-08-08T17:22:41;27.20;44.60
51815;DHT22;37874;53.158;6.766;2023-08-08T17:25:07;27.20;44.70
51815;DHT22;37874;53.158;6.766;2023-08-08T17:27:33;27.20;44.80
51815;DHT22;37874;53.158;6.766;2023-08-08T17:30:01;27.20;44.80
51815;DHT22;37874;53.158;6.766;2023-08-08T17:32:28;27.20;44.60
51815;DHT22;37874;53.158;6.766;2023-08-08T17:34:53;27.20;44.60
51815;DHT22;37874;53.158;6.766;2023-08-08T17:37:20;27.20;44.70
51815;DHT22;37874;53.158;6.766;2023-08-08T17:39:46;27.10;44.80
51815;DHT22;37874;53.158;6.766;2023-08-08T17:42:11;27.10;44.80
51815;DHT22;37874;53.158;6.766;2023-08-08T17:44:37;26.90;44.90
51815;DHT22;37874;53.158;6.766;2023-08-08T17:47:03;26.80;45.10
51815;DHT22;37874;53.158;6.766;2023-08-08T17:49:28;26.80;45.40
51815;DHT22;37874;53.158;6.766;2023-08-08T17:51:54;26.70;45.50
51815;DHT22;37874;53.158;6.766;2023-08-08T17:54:23;26.60;45.60
51815;DHT22;37874;53.158;6.766;2023-08-08T17:56:48;26.50;45.50
51815;DHT22;37874;53.158;6.766;2023-08-08T17:59:14;26.50;45.70
51815;DHT22;37874;53.158;6.766;2023-08-08T18:01:39;26.40;45.80
51815;DHT22;37874;53.158;6.766;2023-08-08T18:04:06;26.30;45.80
51815;DHT22;37874;53.158;6.766;2023-08-08T18:06:32;26.30;45.80
51815;DHT22;37874;53.158;6.766;2023-08-08T18:08:58;26.40;46.00
51815;DHT22;37874;53.158;6.766;2023-08-08T18:11:23;26.20;46.10
51815;DHT22;37874;53.158;6.766;2023-08-08T18:13:49;26.10;46.10
51815;DHT22;37874;53.158;6.766;2023-08-08T18:16:15;26.00;46.30
51815;DHT22;37874;53.158;6.766;2023-08-08T18:18:40;26.00;46.40
51815;DHT22;37874;53.158;6.766;2023-08-08T18:21:06;26.00;46.50
51815;DHT22;37874;53.158;6.766;2023-08-08T18:23:32;25.90;46.80
51815;DHT22;37874;53.158;6.766;2023-08-08T18:25:58;25.90;47.30
51815;DHT22;37874;53.158;6.766;2023-08-08T18:28:26;25.80;47.50
51815;DHT22;37874;53.158;6.766;2023-08-08T18:30:52;25.90;47.70
51815;DHT22;37874;53.158;6.766;2023-08-08T18:33:17;25.80;47.80
51815;DHT22;37874;53.158;6.766;2023-08-08T18:35:43;25.80;48.00
51815;DHT22;37874;53.158;6.766;2023-08-08T18:38:10;25.70;48.00
51815;DHT22;37874;53.158;6.766;2023-08-08T18:40:35;25.70;48.20
51815;DHT22;37874;53.158;6.766;2023-08-08T18:43:01;25.70;48.10
51815;DHT22;37874;53.158;6.766;2023-08-08T18:45:27;25.70;48.20
51815;DHT22;37874;53.158;6.766;2023-08-08T18:47:53;25.70;48.30
51815;DHT22;37874;53.158;6.766;2023-08-08T18:50:19;25.70;48.50
51815;DHT22;37874;53.158;6.766;2023-08-08T18:52:45;25.60;48.40
51815;DHT22;37874;53.158;6.766;2023-08-08T18:55:11;25.60;48.60
51815;DHT22;37874;53.158;6.766;2023-08-08T18:57:36;25.60;48.70
51815;DHT22;37874;53.158;6.766;2023-08-08T19:00:03;25.50;48.70
51815;DHT22;37874;53.158;6.766;2023-08-08T19:02:32;25.50;48.70
51815;DHT22;37874;53.158;6.766;2023-08-08T19:04:57;25.50;48.90
51815;DHT22;37874;53.158;6.766;2023-08-08T19:07:23;25.50;49.00
51815;DHT22;37874;53.158;6.766;2023-08-08T19:09:49;25.50;49.00
51815;DHT22;37874;53.158;6.766;2023-08-08T19:12:14;25.50;49.00
51815;DHT22;37874;53.158;6.766;2023-08-08T19:14:40;25.50;49.00
51815;DHT22;37874;53.158;6.766;2023-08-08T19:17:05;25.40;48.90
51815;DHT22;37874;53.158;6.766;2023-08-08T19:19:31;25.40;48.90
51815;DHT22;37874;53.158;6.766;2023-08-08T19:21:57;25.40;48.80
51815;DHT22;37874;53.158;6.766;2023-08-08T19:24:23;25.40;48.70
51815;DHT22;37874;53.158;6.766;2023-08-08T19:26:48;25.40;48.70
51815;DHT22;37874;53.158;6.766;2023-08-08T19:29:14;25.40;48.70